createdAt,value
2018-08-27T00:00:21.441Z,44.46
2018-08-27T00:00:53.518Z,44.56
2018-08-27T00:01:25.652Z,44.45
2018-08-27T00:01:57.696Z,44.46
2018-08-27T00:02:29.832Z,44.56
2018-08-27T00:03:01.910Z,44.46
2018-08-27T00:03:33.967Z,44.46
2018-08-27T00:04:06.042Z,44.37
2018-08-27T00:04:38.092Z,44.46
2018-08-27T00:05:10.134Z,44.46
2018-08-27T00:05:42.233Z,44.37
2018-08-27T00:06:14.310Z,44.56
2018-08-27T00:06:46.341Z,44.46
2018-08-27T00:07:18.351Z,44.46
2018-08-27T00:07:50.401Z,44.45
2018-08-27T00:08:22.452Z,44.37
2018-08-27T00:08:54.526Z,44.46
2018-08-27T00:09:26.558Z,44.46
2018-08-27T00:09:58.604Z,44.45
2018-08-27T00:10:30.662Z,44.46
2018-08-27T00:11:02.817Z,44.37
2018-08-27T00:11:34.882Z,44.56
2018-08-27T00:12:06.907Z,44.46
2018-08-27T00:12:39.030Z,44.45
2018-08-27T00:13:11.076Z,44.45
2018-08-27T00:13:43.155Z,43.96
2018-08-27T00:14:15.216Z,44.37
2018-08-27T00:14:47.286Z,44.45
2018-08-27T00:15:19.378Z,44.45
2018-08-27T00:15:51.438Z,44.45
2018-08-27T00:16:23.472Z,44.45
2018-08-27T00:16:55.546Z,44.56
2018-08-27T00:17:27.597Z,44.54
2018-08-27T00:17:59.653Z,44.15
2018-08-27T00:18:31.730Z,44.45
2018-08-27T00:19:03.795Z,44.06
2018-08-27T00:19:35.919Z,44.54
2018-08-27T00:20:07.977Z,44.73
2018-08-27T00:20:40.049Z,44.54
2018-08-27T00:21:12.096Z,44.54
2018-08-27T00:21:44.843Z,44.45
2018-08-27T00:22:16.870Z,44.45
2018-08-27T00:22:49.044Z,44.54
2018-08-27T00:23:21.158Z,44.64
2018-08-27T00:23:53.276Z,43.96
2018-08-27T00:24:25.307Z,44.64
2018-08-27T00:24:57.384Z,44.54
2018-08-27T00:25:29.525Z,44.54
2018-08-27T00:26:01.595Z,44.54
2018-08-27T00:26:33.640Z,44.15
2018-08-27T00:27:05.715Z,44.54
2018-08-27T00:27:38.414Z,44.54
2018-08-27T00:28:10.466Z,44.64
2018-08-27T00:28:42.582Z,44.64
2018-08-27T00:29:14.603Z,44.64
2018-08-27T00:29:46.675Z,44.64
2018-08-27T00:30:18.747Z,44.25
2018-08-27T00:30:50.846Z,44.45
2018-08-27T00:31:22.943Z,44.54
2018-08-27T00:31:54.955Z,44.45
2018-08-27T00:32:26.981Z,44.64
2018-08-27T00:32:59.099Z,44.54
2018-08-27T00:33:31.305Z,44.54
2018-08-27T00:34:03.391Z,44.54
2018-08-27T00:34:35.378Z,44.06
2018-08-27T00:35:07.428Z,44.73
2018-08-27T00:35:39.474Z,44.73
2018-08-27T00:36:11.507Z,44.64
2018-08-27T00:36:43.541Z,44.15
2018-08-27T00:37:15.607Z,44.73
2018-08-27T00:37:47.667Z,44.73
2018-08-27T00:38:19.739Z,44.64
2018-08-27T00:38:51.832Z,44.45
2018-08-27T00:39:24.005Z,44.73
2018-08-27T00:39:56.124Z,44.25
2018-08-27T00:40:28.920Z,44.64
2018-08-27T00:41:00.955Z,44.54
2018-08-27T00:41:33.122Z,44.35
2018-08-27T00:42:05.241Z,44.35
2018-08-27T00:42:37.289Z,44.64
2018-08-27T00:43:09.328Z,44.25
2018-08-27T00:43:41.355Z,44.64
2018-08-27T00:44:13.415Z,44.64
2018-08-27T00:44:45.482Z,44.64
2018-08-27T00:45:17.534Z,44.73
2018-08-27T00:45:49.579Z,44.73
2018-08-27T00:46:21.592Z,44.35
2018-08-27T00:46:53.665Z,44.54
2018-08-27T00:47:25.734Z,44.54
2018-08-27T00:47:57.780Z,44.64
2018-08-27T00:48:29.803Z,44.73
2018-08-27T00:49:01.886Z,44.64
2018-08-27T00:49:33.965Z,44.64
2018-08-27T00:50:06.163Z,44.64
2018-08-27T00:50:38.243Z,44.54
2018-08-27T00:51:10.257Z,44.64
2018-08-27T00:51:42.313Z,44.64
2018-08-27T00:52:14.344Z,44.54
2018-08-27T00:52:46.509Z,44.64
2018-08-27T00:53:18.609Z,44.35
2018-08-27T00:53:50.684Z,44.64
2018-08-27T00:54:22.761Z,44.64
2018-08-27T00:54:54.799Z,44.64
2018-08-27T00:55:26.882Z,44.54
2018-08-27T00:55:58.949Z,44.64
2018-08-27T00:56:31.017Z,44.45
2018-08-27T00:57:03.095Z,44.45
2018-08-27T00:57:35.138Z,44.45
2018-08-27T00:58:07.181Z,44.64
2018-08-27T00:58:39.222Z,44.54
2018-08-27T00:59:11.301Z,44.54
2018-08-27T00:59:43.348Z,44.45
2018-08-27T01:00:15.431Z,44.54
2018-08-27T01:00:47.421Z,44.45
2018-08-27T01:01:19.488Z,44.45
2018-08-27T01:01:51.560Z,44.73
2018-08-27T01:02:23.633Z,44.54
2018-08-27T01:02:55.682Z,44.54
2018-08-27T01:03:27.755Z,44.45
2018-08-27T01:03:59.837Z,44.45
2018-08-27T01:04:31.871Z,44.35
2018-08-27T01:05:03.979Z,44.73
2018-08-27T01:05:36.189Z,44.83
2018-08-27T01:06:08.258Z,44.83
2018-08-27T01:06:40.421Z,44.83
2018-08-27T01:07:12.461Z,44.93
2018-08-27T01:07:44.518Z,44.83
2018-08-27T01:08:16.597Z,44.93
2018-08-27T01:08:48.714Z,44.83
2018-08-27T01:09:20.784Z,44.93
2018-08-27T01:09:52.796Z,44.73
2018-08-27T01:10:24.877Z,44.83
2018-08-27T01:10:56.944Z,44.93
2018-08-27T01:11:29.042Z,44.93
2018-08-27T01:12:01.071Z,45.21
2018-08-27T01:12:33.147Z,45.12
2018-08-27T01:13:05.206Z,45.12
2018-08-27T01:13:37.231Z,45.21
2018-08-27T01:14:09.256Z,45.03
2018-08-27T01:14:41.327Z,45.12
2018-08-27T01:15:13.379Z,45.12
2018-08-27T01:15:45.582Z,45.21
2018-08-27T01:16:17.720Z,45.12
2018-08-27T01:16:50.541Z,45.21
2018-08-27T01:17:22.639Z,44.83
2018-08-27T01:17:54.690Z,45.31
2018-08-27T01:18:26.743Z,44.73
2018-08-27T01:18:58.829Z,45.31
2018-08-27T01:19:30.858Z,45.21
2018-08-27T01:20:03.008Z,45.21
2018-08-27T01:20:35.061Z,45.21
2018-08-27T01:21:07.118Z,45.21
2018-08-27T01:21:39.166Z,45.31
2018-08-27T01:22:11.214Z,44.73
2018-08-27T01:22:43.283Z,45.31
2018-08-27T01:23:18.616Z,45.12
2018-08-27T01:23:50.738Z,45.21
2018-08-27T01:24:22.766Z,45.21
2018-08-27T01:24:54.820Z,45.31
2018-08-27T01:25:26.860Z,45.31
2018-08-27T01:25:58.890Z,45.2
2018-08-27T01:26:30.932Z,45.21
2018-08-27T01:27:03.003Z,45.21
2018-08-27T01:27:35.054Z,45.21
